Time;durP1;ratioP1;P1;durP2;ratioP2;P2;SDS_P1;SDS_P2;PMS_P1;PMS_P2;Temp;Humidity;BMP_temperature;BMP_pressure;BME280_temperature;BME280_humidity;BME280_pressure;Samples;Min_cycle;Max_cycle;Signal;HPM_P1;HPM_P2
2021/10/27 00:01:26;;;;;;;6.90;4.90;;;1.40;99.90;0.70;97652.00;;;;5143654;27;20446;-71
2021/10/27 00:04:17;;;;;;;6.07;4.10;;;1.40;99.90;0.80;97654.00;;;;5140871;27;20418;-71
2021/10/27 00:07:06;;;;;;;9.67;4.20;;;1.50;99.90;0.80;97658.00;;;;5138748;27;20909;-71
2021/10/27 00:09:58;;;;;;;3.67;3.33;;;1.50;99.90;0.80;97659.00;;;;5139959;27;20423;-70
2021/10/27 00:12:48;;;;;;;5.53;4.17;;;1.50;99.90;0.80;97660.00;;;;5140722;27;20451;-71
2021/10/27 00:15:38;;;;;;;4.53;3.80;;;1.50;99.90;0.70;97660.00;;;;5142135;27;20427;-71
2021/10/27 00:18:27;;;;;;;5.33;4.70;;;1.50;99.90;0.50;97665.00;;;;5129657;27;20420;-71
2021/10/27 00:21:16;;;;;;;4.57;4.07;;;1.40;99.90;0.30;97669.00;;;;5127816;27;20973;-71
2021/10/27 00:24:05;;;;;;;5.03;3.87;;;1.30;99.90;0.40;97677.00;;;;5127718;27;20424;-71
2021/10/27 00:26:54;;;;;;;6.63;3.63;;;1.30;99.90;0.40;97678.00;;;;5128134;27;20455;-71
2021/10/27 00:29:43;;;;;;;5.33;4.00;;;1.30;99.90;0.60;97674.00;;;;5127693;27;20422;-71
2021/10/27 00:32:33;;;;;;;4.70;4.17;;;1.20;99.90;0.50;97680.00;;;;5127656;27;20521;-71
2021/10/27 00:35:22;;;;;;;9.43;4.20;;;1.30;99.90;0.20;97674.00;;;;5128537;27;20439;-71
2021/10/27 00:38:11;;;;;;;5.03;4.07;;;1.30;99.90;0.20;97668.00;;;;5128896;27;20415;-71
2021/10/27 00:41:00;;;;;;;7.87;4.07;;;1.20;99.90;0.30;97674.00;;;;5127469;27;20432;-71
2021/10/27 00:43:49;;;;;;;6.53;4.80;;;1.20;99.90;0.50;97673.00;;;;5126063;27;21157;-71
2021/10/27 00:46:38;;;;;;;8.50;4.70;;;1.20;99.90;0.50;97674.00;;;;5127395;27;20463;-70
2021/10/27 00:49:28;;;;;;;6.23;3.97;;;1.20;99.90;0.50;97676.00;;;;5127999;27;20416;-71
2021/10/27 00:52:20;;;;;;;4.40;3.67;;;1.20;99.90;0.50;97672.00;;;;5127754;27;20440;-71
2021/10/27 00:55:09;;;;;;;6.60;4.43;;;1.20;99.90;0.40;97685.00;;;;5128291;27;20423;-71
2021/10/27 00:57:59;;;;;;;4.53;4.13;;;1.20;99.90;0.30;97681.00;;;;5127521;27;20415;-71
2021/10/27 01:00:48;;;;;;;4.47;4.07;;;1.20;99.90;0.00;97674.00;;;;5127310;27;20423;-71
2021/10/27 01:03:37;;;;;;;7.30;4.77;;;1.10;99.90;0.10;97674.00;;;;5126285;27;20419;-70
2021/10/27 01:06:28;;;;;;;4.77;4.33;;;1.00;99.90;0.10;97668.00;;;;5127417;27;20459;-72
2021/10/27 01:09:19;;;;;;;4.80;4.40;;;1.00;99.90;0.30;97677.00;;;;5127371;27;20435;-71
2021/10/27 01:12:09;;;;;;;5.17;4.20;;;1.00;99.90;0.30;97673.00;;;;5117183;27;20460;-72
2021/10/27 01:14:58;;;;;;;5.33;4.20;;;1.00;99.90;0.40;97662.00;;;;5128203;27;20428;-71
2021/10/27 01:17:47;;;;;;;7.27;4.57;;;1.00;99.90;0.50;97663.00;;;;5131098;27;20419;-71
2021/10/27 01:20:38;;;;;;;4.30;3.90;;;1.10;99.90;0.40;97666.00;;;;5133836;27;21193;-71
2021/10/27 01:23:26;;;;;;;4.80;4.30;;;1.10;99.90;0.40;97670.00;;;;5135267;27;20435;-69
2021/10/27 01:26:15;;;;;;;4.80;4.13;;;1.20;99.90;0.50;97667.00;;;;5145623;27;20443;-71
2021/10/27 01:29:04;;;;;;;3.90;3.57;;;1.20;99.90;0.50;97672.00;;;;5145502;27;20793;-71
2021/10/27 01:31:53;;;;;;;4.50;3.43;;;1.10;99.90;0.40;97671.00;;;;5143666;27;20446;-71
2021/10/27 01:34:42;;;;;;;4.63;3.93;;;1.20;99.90;0.30;97670.00;;;;5137982;27;20423;-71
2021/10/27 01:37:32;;;;;;;6.20;4.97;;;1.10;99.90;-0.10;97665.00;;;;5135561;27;20429;-71
2021/10/27 01:40:21;;;;;;;8.93;4.33;;;1.10;99.90;-0.10;97660.00;;;;5148442;27;20956;-71
2021/10/27 01:43:10;;;;;;;5.90;3.97;;;0.90;99.90;0.10;97667.00;;;;5144490;27;20957;-71
2021/10/27 01:45:59;;;;;;;4.50;4.10;;;0.90;99.90;0.00;97670.00;;;;5124189;27;21058;-71
2021/10/27 01:48:48;;;;;;;5.13;3.93;;;0.90;99.90;-0.10;97672.00;;;;5147471;27;20503;-71
2021/10/27 01:51:38;;;;;;;5.97;4.03;;;0.80;99.90;0.00;97666.00;;;;5147444;27;20453;-72
2021/10/27 01:54:29;;;;;;;5.90;4.90;;;0.80;99.90;0.10;97671.00;;;;5146835;27;20822;-71
2021/10/27 01:57:18;;;;;;;4.93;3.97;;;0.80;99.90;0.20;97682.00;;;;5146560;27;20419;-71
2021/10/27 02:00:09;;;;;;;4.40;3.33;;;0.90;99.90;0.40;97681.00;;;;5146239;27;20425;-72
2021/10/27 02:02:58;;;;;;;4.93;4.40;;;0.90;99.90;0.40;97673.00;;;;5146456;27;20940;-72
2021/10/27 02:06:11;;;;;;;4.67;3.73;;;1.00;99.90;0.30;97674.00;;;;5121971;27;20503;-71
2021/10/27 02:09:03;;;;;;;6.20;4.53;;;1.10;99.90;0.00;97669.00;;;;5126467;27;20822;-72
2021/10/27 02:11:53;;;;;;;3.80;3.50;;;1.00;99.90;0.00;97678.00;;;;5137688;27;20458;-72
2021/10/27 02:14:42;;;;;;;4.40;3.30;;;1.00;99.90;0.00;97674.00;;;;5139703;27;20420;-72
2021/10/27 02:17:56;;;;;;;3.87;3.50;;;0.90;99.90;-0.10;97675.00;;;;5145284;27;20450;-72
2021/10/27 02:20:45;;;;;;;3.90;3.50;;;0.90;99.90;-0.20;97662.00;;;;5134189;27;20806;-72
2021/10/27 02:23:34;;;;;;;5.63;4.07;;;0.80;99.90;0.10;97684.00;;;;5141104;27;20430;-71
2021/10/27 02:26:23;;;;;;;4.23;3.80;;;0.80;99.90;0.00;97680.00;;;;5144155;27;20462;-72
2021/10/27 02:29:14;;;;;;;4.33;3.53;;;0.80;99.90;0.10;97681.00;;;;5139110;27;20419;-71
2021/10/27 02:32:07;;;;;;;5.47;4.43;;;0.80;99.90;0.30;97689.00;;;;5124021;27;20431;-72
2021/10/27 02:34:56;;;;;;;5.77;4.43;;;0.90;99.90;0.00;97677.00;;;;5125171;27;20506;-72
2021/10/27 02:37:45;;;;;;;6.03;4.27;;;0.90;99.90;-0.10;97680.00;;;;5145053;27;20453;-72
2021/10/27 02:40:34;;;;;;;5.07;3.93;;;0.90;99.90;0.10;97684.00;;;;5124581;27;20423;-72
2021/10/27 02:43:47;;;;;;;5.77;4.07;;;0.90;99.90;0.00;97687.00;;;;5104477;28;20450;-72
2021/10/27 02:46:37;;;;;;;5.40;4.27;;;0.80;99.90;-0.20;97677.00;;;;5104760;28;20465;-72
2021/10/27 02:49:26;;;;;;;4.33;3.83;;;-0.60;99.90;-0.20;97687.00;;;;5105075;28;20467;-72
2021/10/27 02:52:15;;;;;;;4.30;3.77;;;0.70;99.90;-0.10;97675.00;;;;5106144;27;20448;-72
2021/10/27 02:55:06;;;;;;;4.73;4.33;;;0.70;99.90;0.00;97678.00;;;;5125435;27;20930;-72
2021/10/27 02:57:57;;;;;;;4.57;3.63;;;0.70;99.90;-0.10;97684.00;;;;5122802;27;20419;-71
2021/10/27 03:00:46;;;;;;;5.53;4.97;;;0.70;99.90;-0.10;97680.00;;;;5125719;27;21266;-72
2021/10/27 03:03:37;;;;;;;5.90;4.33;;;0.70;99.90;-0.10;97687.00;;;;5125110;27;20408;-72
2021/10/27 03:06:25;;;;;;;7.57;4.93;;;0.70;99.90;0.00;97688.00;;;;5126229;28;20432;-71
2021/10/27 03:09:14;;;;;;;4.37;3.97;;;0.70;99.90;0.00;97692.00;;;;5110332;28;20420;-71
2021/10/27 03:12:04;;;;;;;4.87;3.93;;;0.70;99.90;0.10;97697.00;;;;5115236;28;20436;-72
2021/10/27 03:14:53;;;;;;;5.47;4.33;;;0.80;99.90;0.10;97703.00;;;;5122484;28;20420;-72
2021/10/27 03:17:42;;;;;;;5.57;3.53;;;0.80;99.90;0.00;97699.00;;;;5125370;28;20422;-71
2021/10/27 03:20:56;;;;;;;5.53;3.97;;;0.80;99.90;0.00;97710.00;;;;5124698;28;20435;-72
2021/10/27 03:23:45;;;;;;;4.93;3.43;;;0.80;99.90;-0.10;97698.00;;;;5113133;28;20432;-72
2021/10/27 03:26:34;;;;;;;4.00;3.60;;;0.70;99.90;-0.10;97708.00;;;;5108982;28;20919;-72
2021/10/27 03:29:23;;;;;;;4.80;3.33;;;0.70;99.90;0.00;97706.00;;;;5104289;28;21373;-72
2021/10/27 03:32:13;;;;;;;3.47;3.07;;;0.70;99.90;-0.10;97712.00;;;;5099920;28;20544;-72
2021/10/27 03:35:02;;;;;;;6.40;3.47;;;0.70;99.90;-0.20;97706.00;;;;5112915;28;20927;-71
2021/10/27 03:37:52;;;;;;;5.87;4.13;;;0.60;99.90;-0.20;97714.00;;;;5123647;28;21227;-71
2021/10/27 03:40:41;;;;;;;4.37;3.97;;;0.70;99.90;-0.10;97708.00;;;;5124267;28;20427;-71
2021/10/27 03:43:30;;;;;;;5.30;4.03;;;0.70;99.90;-0.20;97705.00;;;;5109594;28;20427;-71
2021/10/27 03:46:19;;;;;;;6.97;4.40;;;0.70;99.90;-0.20;97714.00;;;;5112866;28;20442;-72
2021/10/27 03:49:08;;;;;;;14.23;4.33;;;0.70;99.90;-0.10;97729.00;;;;5123835;28;20477;-72
2021/10/27 03:51:57;;;;;;;8.23;3.90;;;0.60;99.90;-0.10;97717.00;;;;5125105;27;20474;-72
2021/10/27 03:54:47;;;;;;;5.87;4.43;;;0.70;99.90;-0.10;97721.00;;;;5127298;27;20422;-72
2021/10/27 03:57:36;;;;;;;4.90;4.40;;;0.70;99.90;-0.30;97732.00;;;;5127845;27;20426;-71
2021/10/27 04:00:25;;;;;;;6.60;3.60;;;0.70;99.90;-0.30;97731.00;;;;5127308;27;20424;-72
2021/10/27 04:03:22;;;;;;;6.50;3.77;;;0.60;99.90;-0.30;97727.00;;;;5127820;27;20415;-72
2021/10/27 04:06:11;;;;;;;4.87;3.33;;;0.60;99.90;-0.10;97727.00;;;;5128944;27;20439;-71
2021/10/27 04:09:01;;;;;;;3.90;3.33;;;0.70;99.90;0.00;97722.00;;;;5127248;27;20505;-71
2021/10/27 04:11:52;;;;;;;5.77;4.30;;;0.70;99.90;0.10;97732.00;;;;5113719;27;20471;-71
2021/10/27 04:14:41;;;;;;;5.70;4.47;;;0.80;99.90;0.00;97731.00;;;;5127003;27;20795;-71
2021/10/27 04:17:30;;;;;;;6.27;3.80;;;0.70;99.90;0.00;97740.00;;;;5118934;27;20436;-71
2021/10/27 04:20:19;;;;;;;5.37;3.67;;;0.80;99.90;-0.20;97733.00;;;;5128041;27;20431;-71
2021/10/27 04:23:09;;;;;;;3.90;3.53;;;0.70;99.90;-0.10;97732.00;;;;5128788;27;20423;-71
2021/10/27 04:25:58;;;;;;;6.10;3.20;;;0.70;99.90;-0.10;97747.00;;;;5127312;27;20454;-71
2021/10/27 04:28:49;;;;;;;3.57;3.10;;;0.70;99.90;-0.30;97733.00;;;;5126463;27;20474;-71
2021/10/27 04:31:38;;;;;;;4.93;3.30;;;0.60;99.90;-0.30;97740.00;;;;5126278;27;20446;-71
2021/10/27 04:34:27;;;;;;;4.40;3.80;;;0.60;99.90;-0.30;97726.00;;;;5127717;27;20428;-71
2021/10/27 04:37:19;;;;;;;3.93;3.00;;;0.50;99.90;-0.30;97723.00;;;;5127125;27;20455;-71
2021/10/27 04:40:11;;;;;;;3.80;3.40;;;0.50;99.90;-0.20;97735.00;;;;5125506;27;20427;-71
2021/10/27 04:43:00;;;;;;;4.63;3.77;;;0.50;99.90;-0.10;97737.00;;;;5118434;27;20463;-70
2021/10/27 04:45:53;;;;;;;4.13;2.97;;;0.50;99.90;-0.20;97732.00;;;;5126705;27;20807;-71
2021/10/27 04:48:42;;;;;;;4.73;3.97;;;0.60;99.90;-0.40;97737.00;;;;5127225;27;20471;-70
2021/10/27 04:51:31;;;;;;;4.97;4.50;;;0.60;99.90;-0.50;97738.00;;;;5114907;27;20451;-71
2021/10/27 04:54:20;;;;;;;3.87;3.47;;;0.50;99.90;-0.50;97740.00;;;;5128650;27;20427;-70
2021/10/27 04:57:10;;;;;;;4.70;3.80;;;0.40;99.90;-0.50;97742.00;;;;5122476;27;20420;-70
2021/10/27 04:59:59;;;;;;;6.30;4.00;;;0.50;99.90;-0.50;97739.00;;;;5115985;27;20433;-71
2021/10/27 05:02:50;;;;;;;5.07;3.63;;;0.40;99.90;-0.40;97758.00;;;;5113959;27;20444;-70
2021/10/27 05:05:45;;;;;;;5.37;4.60;;;-0.40;99.90;-0.50;97746.00;;;;5125864;27;20980;-70
2021/10/27 05:08:35;;;;;;;6.23;4.00;;;0.40;99.90;-0.50;97752.00;;;;5127522;27;20464;-70
2021/10/27 05:11:24;;;;;;;5.53;3.70;;;0.30;99.90;-0.50;97767.00;;;;5114637;27;20460;-70
2021/10/27 05:14:13;;;;;;;4.13;3.40;;;0.30;99.90;-0.50;97749.00;;;;5115437;27;20424;-70
2021/10/27 05:17:09;;;;;;;6.20;4.07;;;0.30;99.90;-0.40;97765.00;;;;5128171;27;20435;-71
2021/10/27 05:19:59;;;;;;;4.17;3.43;;;0.30;99.90;-0.30;97766.00;;;;5127440;27;20411;-71
2021/10/27 05:22:48;;;;;;;4.43;3.80;;;0.40;99.90;-0.40;97756.00;;;;5125970;27;20438;-71
2021/10/27 05:25:38;;;;;;;12.23;4.07;;;0.40;99.90;-0.30;97762.00;;;;5119957;27;20420;-70
2021/10/27 05:28:27;;;;;;;4.20;3.67;;;0.50;99.90;-0.40;97762.00;;;;5123765;27;21225;-71
2021/10/27 05:31:17;;;;;;;4.30;3.90;;;0.40;99.90;-0.40;97759.00;;;;5126367;27;20813;-71
2021/10/27 05:34:05;;;;;;;4.40;3.70;;;0.50;99.90;-0.60;97775.00;;;;5127192;27;20528;-71
2021/10/27 05:36:56;;;;;;;4.47;4.03;;;0.40;99.90;-0.60;97772.00;;;;5126703;27;20430;-70
2021/10/27 05:39:45;;;;;;;4.37;3.93;;;0.30;99.90;-0.70;97784.00;;;;5126630;27;20427;-71
2021/10/27 05:42:35;;;;;;;4.33;3.93;;;0.30;99.90;-0.70;97787.00;;;;5126664;27;20443;-71
2021/10/27 05:45:26;;;;;;;4.50;3.93;;;0.30;99.90;-0.70;97785.00;;;;5125502;27;20424;-71
2021/10/27 05:48:16;;;;;;;4.77;4.13;;;0.20;99.90;-0.50;97794.00;;;;5115534;27;20451;-71
2021/10/27 05:51:16;;;;;;;5.97;4.10;;;0.20;99.90;-0.50;97794.00;;;;5126051;27;20443;-71
2021/10/27 05:57:39;;;;;;;5.43;4.93;;;0.30;99.90;-0.20;97804.00;;;;5119518;27;20436;-69
2021/10/27 06:00:32;;;;;;;7.90;6.60;;;0.50;99.90;-0.50;97809.00;;;;5118024;27;20432;-71
2021/10/27 06:03:21;;;;;;;6.03;5.43;;;0.50;99.90;-0.60;97804.00;;;;5105720;27;20510;-71
2021/10/27 06:06:11;;;;;;;4.27;3.87;;;0.40;99.90;-0.80;97808.00;;;;5121741;27;21281;-71
2021/10/27 06:09:00;;;;;;;4.97;4.50;;;0.30;99.90;-0.80;97813.00;;;;5118588;27;20517;-71
2021/10/27 06:11:51;;;;;;;5.73;4.50;;;0.20;99.90;-0.80;97810.00;;;;5116575;27;21202;-71
2021/10/27 06:14:41;;;;;;;7.17;4.37;;;0.20;99.90;-0.70;97813.00;;;;5114712;27;20444;-71
2021/10/27 06:17:30;;;;;;;5.90;3.80;;;0.20;99.90;-0.70;97818.00;;;;5112236;27;21076;-72
2021/10/27 06:20:20;;;;;;;5.23;4.23;;;0.30;99.90;-0.50;97822.00;;;;5125397;27;20439;-72
2021/10/27 06:23:09;;;;;;;7.90;4.83;;;0.30;99.90;-0.40;97823.00;;;;5121771;27;20434;-72
2021/10/27 06:26:00;;;;;;;7.57;4.53;;;0.40;99.90;-0.20;97826.00;;;;5120352;27;20428;-71
2021/10/27 06:28:59;;;;;;;6.83;4.43;;;0.50;99.90;-0.30;97824.00;;;;5117704;27;20472;-71
2021/10/27 06:31:51;;;;;;;5.13;4.47;;;0.50;99.90;-0.40;97839.00;;;;5119324;27;20447;-71
2021/10/27 06:34:44;;;;;;;4.50;4.10;;;0.50;99.90;-0.60;97827.00;;;;5108691;27;20420;-71
2021/10/27 06:37:52;;;;;;;5.43;4.67;;;0.40;99.90;-0.30;97837.00;;;;5121887;27;20424;-72
2021/10/27 06:47:04;;;;;;;8.10;5.70;;;0.60;99.90;0.10;97837.00;;;;5115826;27;20423;-71
2021/10/27 06:49:52;;;;;;;5.90;4.30;;;0.70;99.90;-0.10;97849.00;;;;5125419;27;20470;-71
2021/10/27 06:52:41;;;;;;;5.37;4.87;;;0.80;99.90;-0.10;97844.00;;;;5120374;27;20475;-71
2021/10/27 06:55:33;;;;;;;5.10;4.60;;;0.70;99.90;-0.10;97834.00;;;;5124807;27;20428;-71
2021/10/27 06:58:22;;;;;;;5.37;4.60;;;0.70;99.90;0.10;97849.00;;;;5113040;27;20436;-71
2021/10/27 07:01:17;;;;;;;7.53;6.13;;;0.70;99.90;0.30;97852.00;;;;5117412;27;20831;-71
2021/10/27 07:16:29;;;;;;;8.00;7.03;;;1.30;99.90;1.00;97850.00;;;;5118469;28;20415;-70
2021/10/27 07:19:42;;;;;;;8.57;6.33;;;1.50;99.90;1.10;97846.00;;;;5119554;28;20812;-70
2021/10/27 07:22:31;;;;;;;7.37;5.80;;;1.60;99.90;1.30;97844.00;;;;5126149;28;20447;-73
2021/10/27 07:25:20;;;;;;;4.60;4.20;;;1.80;99.90;1.40;97846.00;;;;5116322;28;21185;-72
2021/10/27 07:28:09;;;;;;;8.20;4.97;;;1.90;99.90;1.20;97844.00;;;;5127075;27;20427;-72
2021/10/27 07:31:03;;;;;;;8.60;5.77;;;2.00;99.90;1.20;97843.00;;;;5130019;27;20444;-72
2021/10/27 07:33:57;;;;;;;10.47;5.73;;;2.00;99.90;1.30;97851.00;;;;5124916;27;20430;-72
2021/10/27 07:39:59;;;;;;;13.47;7.47;;;2.10;99.90;1.90;97866.00;;;;5129294;27;20435;-72
2021/10/27 07:42:48;;;;;;;10.70;7.20;;;2.30;99.90;2.20;97869.00;;;;5125239;27;20447;-72
2021/10/27 07:45:38;;;;;;;11.20;7.67;;;2.50;99.90;2.40;97853.00;;;;5129584;27;20521;-72
2021/10/27 07:48:28;;;;;;;11.57;7.80;;;2.60;99.90;2.50;97858.00;;;;5118137;27;20427;-72
2021/10/27 07:51:19;;;;;;;11.10;7.13;;;2.80;99.90;2.40;97862.00;;;;5121910;27;20448;-72
2021/10/27 07:54:08;;;;;;;12.47;9.67;;;3.00;99.90;2.60;97859.00;;;;5127377;27;20434;-71
2021/10/27 07:56:57;;;;;;;13.87;10.53;;;3.10;99.90;2.90;97861.00;;;;5126923;27;20427;-72
2021/10/27 07:59:46;;;;;;;10.63;7.33;;;3.30;99.90;3.00;97854.00;;;;5124723;27;20439;-72
2021/10/27 08:02:35;;;;;;;9.73;7.40;;;3.40;99.90;3.30;97853.00;;;;5128397;27;20435;-70
2021/10/27 08:05:24;;;;;;;14.93;8.57;;;3.60;99.90;3.50;97859.00;;;;5121519;27;20444;-71
2021/10/27 08:08:22;;;;;;;12.00;8.93;;;3.80;99.90;3.70;97861.00;;;;5118499;27;20411;-71
2021/10/27 08:11:11;;;;;;;13.20;8.13;;;4.00;99.90;4.00;97857.00;;;;5110429;27;20441;-71
2021/10/27 08:14:00;;;;;;;12.87;10.50;;;4.20;99.90;4.10;97851.00;;;;5124215;27;20428;-72
2021/10/27 08:16:49;;;;;;;16.53;9.70;;;4.40;99.90;4.20;97861.00;;;;5111422;27;20434;-71
2021/10/27 08:19:39;;;;;;;14.63;10.83;;;4.50;99.90;4.30;97867.00;;;;5128500;27;20278;-71
2021/10/27 08:22:28;;;;;;;14.30;10.87;;;4.60;99.90;4.60;97870.00;;;;5129699;27;20210;-71
2021/10/27 08:25:21;;;;;;;17.50;12.10;;;4.80;99.90;4.80;97863.00;;;;5125588;27;20207;-71
2021/10/27 08:28:14;;;;;;;11.60;9.87;;;5.00;99.90;4.90;97861.00;;;;5113347;27;20204;-71
2021/10/27 08:31:08;;;;;;;13.77;10.80;;;5.20;99.90;5.00;97864.00;;;;5111995;27;20233;-71
2021/10/27 08:34:12;;;;;;;15.87;10.40;;;5.30;99.90;5.40;97869.00;;;;5118135;27;20202;-71
2021/10/27 08:37:01;;;;;;;17.03;10.97;;;5.50;99.90;5.60;97863.00;;;;5127955;27;20209;-72
2021/10/27 08:39:50;;;;;;;15.30;10.00;;;5.70;99.90;5.80;97861.00;;;;5117907;27;20851;-71
2021/10/27 08:42:41;;;;;;;15.80;10.63;;;5.90;99.90;5.90;97865.00;;;;5123878;27;20236;-72
2021/10/27 08:45:30;;;;;;;11.70;10.37;;;6.10;99.90;6.00;97861.00;;;;5128603;27;20202;-71
2021/10/27 08:48:19;;;;;;;17.47;10.40;;;6.30;99.90;6.20;97863.00;;;;5123851;27;20204;-72
2021/10/27 08:51:10;;;;;;;17.60;10.93;;;6.40;99.90;6.40;97863.00;;;;5122910;27;20230;-71
2021/10/27 08:53:59;;;;;;;15.23;10.47;;;6.60;99.90;6.60;97869.00;;;;5117906;27;20198;-71
2021/10/27 08:56:49;;;;;;;10.57;9.33;;;6.70;99.90;6.70;97863.00;;;;5128880;27;20202;-72
2021/10/27 08:59:46;;;;;;;14.90;10.17;;;6.90;99.90;7.00;97866.00;;;;5116523;27;20194;-71
2021/10/27 09:02:52;;;;;;;13.13;9.80;;;7.00;99.90;7.10;97857.00;;;;5130186;27;20231;-72
2021/10/27 09:09:27;;;;;;;13.77;10.67;;;7.50;99.90;7.50;97855.00;;;;5098634;27;20204;-72
2021/10/27 09:35:02;;;;;;;11.27;8.20;;;9.60;99.90;10.70;97863.00;;;;5115676;27;20202;-72
2021/10/27 09:38:04;;;;;;;9.10;8.13;;;10.00;99.90;10.90;97859.00;;;;5122485;27;20206;-71
2021/10/27 09:56:53;;;;;;;8.47;7.40;;;11.90;99.90;12.80;97873.00;;;;5110107;27;20194;-72
2021/10/27 10:06:22;;;;;;;9.57;6.10;;;12.80;99.90;13.50;97863.00;;;;5123270;27;20206;-72
2021/10/27 10:09:13;;;;;;;7.77;5.80;;;13.00;99.90;13.60;97858.00;;;;5112139;27;20202;-72
2021/10/27 10:12:03;;;;;;;7.00;5.67;;;13.20;99.90;14.20;97852.00;;;;5108474;27;21140;-72
2021/10/27 10:14:53;;;;;;;8.93;6.20;;;13.40;99.90;14.60;97843.00;;;;5130431;27;20216;-72
2021/10/27 10:17:43;;;;;;;7.47;5.67;;;13.80;99.90;15.10;97846.00;;;;5123217;27;20494;-72
2021/10/27 10:20:35;;;;;;;7.70;5.50;;;14.20;99.90;15.60;97843.00;;;;5124148;27;20573;-71
2021/10/27 10:23:27;;;;;;;8.33;5.67;;;14.70;99.90;15.70;97838.00;;;;5122194;27;20243;-72
2021/10/27 10:26:32;;;;;;;5.57;4.30;;;15.20;99.90;16.40;97834.00;;;;5125376;27;20198;-72
2021/10/27 10:29:56;;;;;;;7.33;5.83;;;15.70;99.90;16.90;97834.00;;;;5124581;27;20198;-72
2021/10/27 10:32:49;;;;;;;;;;;16.20;99.90;17.60;97836.00;;;;5118480;27;20036;-71
2021/10/27 10:35:47;;;;;;;;;;;16.70;99.90;17.30;97835.00;;;;5126217;27;19931;-70
2021/10/27 10:41:58;;;;;;;;;;;17.40;99.90;17.70;97836.00;;;;5117090;27;19919;-70
2021/10/27 10:58:03;;;;;;;6.30;4.10;;;18.60;91.20;19.10;97829.00;;;;5107916;27;20205;-69
2021/10/27 11:01:43;;;;;;;5.37;4.13;;;18.80;90.60;19.10;97819.00;;;;5118627;28;20221;-71
2021/10/27 11:24:08;;;;;;;12.73;4.37;;;19.60;77.10;18.90;97803.00;;;;5134557;27;20214;-71
2021/10/27 11:39:50;;;;;;;9.10;4.63;;;20.20;70.10;18.30;97779.00;;;;5140079;27;20230;-71
2021/10/27 11:42:48;;;;;;;6.57;4.40;;;20.50;67.10;18.00;97767.00;;;;5110235;28;20313;-71
2021/10/27 11:45:41;;;;;;;7.70;4.23;;;20.20;67.30;20.40;97785.00;;;;5124948;28;20202;-71
2021/10/27 11:48:52;;;;;;;8.63;5.67;;;20.30;69.10;20.50;97770.00;;;;5127653;27;20490;-72
2021/10/27 11:51:41;;;;;;;6.23;4.97;;;20.70;67.50;19.80;97759.00;;;;5139991;27;20276;-72
2021/10/27 11:54:31;;;;;;;10.67;5.70;;;20.90;66.50;20.80;97770.00;;;;5132357;27;20198;-71
2021/10/27 11:57:21;;;;;;;8.03;4.53;;;21.10;66.90;21.60;97770.00;;;;5142038;27;20203;-70
2021/10/27 12:00:24;;;;;;;5.97;3.67;;;21.40;65.50;20.20;97751.00;;;;5136260;27;20667;-69
2021/10/27 12:03:17;;;;;;;6.47;4.27;;;21.80;62.00;17.90;97735.00;;;;5139174;27;20212;-71
2021/10/27 12:06:10;;;;;;;9.43;4.80;;;21.10;61.60;18.80;97733.00;;;;5115350;27;20224;-71
2021/10/27 12:09:21;;;;;;;7.10;4.40;;;20.30;64.00;18.50;97729.00;;;;5123843;28;20202;-71
2021/10/27 12:12:31;;;;;;;7.17;3.90;;;20.30;64.40;18.00;97724.00;;;;5109617;27;20227;-71
2021/10/27 12:15:50;;;;;;;8.83;4.63;;;19.60;66.10;19.20;97726.00;;;;5145547;27;20194;-70
2021/10/27 12:18:42;;;;;;;7.77;3.83;;;19.50;67.30;20.70;97732.00;;;;5141122;27;20197;-70
2021/10/27 12:21:31;;;;;;;6.23;4.30;;;20.10;67.20;20.50;97735.00;;;;5148435;27;20220;-71
2021/10/27 12:24:23;;;;;;;5.10;3.93;;;20.90;64.30;21.10;97725.00;;;;5125068;27;20195;-70
2021/10/27 12:27:22;;;;;;;8.03;3.77;;;21.60;62.70;22.00;97722.00;;;;5118247;27;20591;-70
2021/10/27 12:30:16;;;;;;;5.57;4.10;;;21.70;63.10;21.30;97718.00;;;;5141930;27;20584;-70
2021/10/27 12:33:07;;;;;;;6.83;4.07;;;22.20;60.30;22.60;97719.00;;;;5141550;27;20213;-70
2021/10/27 12:36:13;;;;;;;8.00;4.20;;;22.70;59.80;23.30;97713.00;;;;5138220;27;20194;-70
2021/10/27 12:39:13;;;;;;;11.47;4.17;;;22.90;59.10;23.70;97716.00;;;;5134721;27;20677;-70
2021/10/27 12:42:06;;;;;;;6.57;3.93;;;23.10;59.00;21.80;97711.00;;;;5135543;27;20224;-71
2021/10/27 12:44:55;;;;;;;17.73;5.07;;;23.50;57.40;22.20;97709.00;;;;5121768;27;20209;-71
2021/10/27 12:47:44;;;;;;;6.63;3.53;;;23.50;56.90;23.80;97718.00;;;;5141016;27;20197;-70
2021/10/27 12:50:36;;;;;;;5.60;3.22;;;23.60;57.10;23.70;97714.00;;;;5146552;27;20196;-70
2021/10/27 12:53:34;;;;;;;6.45;4.95;;;23.80;56.90;23.20;97712.00;;;;5140466;27;20216;-70
2021/10/27 12:56:25;;;;;;;3.58;3.22;;;24.20;56.10;20.90;97697.00;;;;5115615;27;20212;-69
2021/10/27 12:59:28;;;;;;;8.73;3.95;;;24.10;54.50;22.40;97707.00;;;;5148119;27;20257;-70
2021/10/27 13:02:27;;;;;;;5.35;3.38;;;23.80;54.90;23.70;97712.00;;;;5149464;27;20227;-70
2021/10/27 13:05:30;;;;;;;3.50;2.97;;;23.70;55.70;21.90;97705.00;;;;5148537;27;20211;-70
2021/10/27 13:08:46;;;;;;;6.45;3.35;;;24.00;54.40;23.00;97707.00;;;;5148839;27;20212;-72
2021/10/27 13:18:30;;;;;;;3.80;3.40;;;23.40;55.50;24.20;97713.00;;;;5139643;27;20223;-70
2021/10/27 13:21:36;;;;;;;10.40;3.57;;;23.70;55.30;24.50;97708.00;;;;5143314;27;20235;-71
2021/10/27 13:33:47;;;;;;;6.20;4.13;;;24.90;53.60;23.70;97711.00;;;;5149616;27;20944;-71
2021/10/27 13:36:36;;;;;;;6.78;3.92;;;25.30;51.60;25.10;97709.00;;;;5148788;27;20587;-71
2021/10/27 13:39:26;;;;;;;6.63;3.70;;;25.20;52.70;25.40;97710.00;;;;5148330;27;20203;-71
2021/10/27 13:42:20;;;;;;;4.78;3.40;;;25.30;52.50;25.80;97726.00;;;;5147836;27;20231;-71
2021/10/27 13:45:15;;;;;;;4.15;3.05;;;25.40;52.50;24.90;97712.00;;;;5146993;27;20199;-70
2021/10/27 13:48:11;;;;;;;5.60;2.85;;;25.40;51.70;25.10;97713.00;;;;5147962;27;20200;-70
2021/10/27 14:06:44;;;;;;;5.03;3.08;;;24.20;52.50;24.20;97719.00;;;;5138310;27;20211;-77
2021/10/27 14:09:37;;;;;;;4.55;2.80;;;24.30;52.90;24.70;97727.00;;;;5147659;27;20209;-80
2021/10/27 14:12:39;;;;;;;3.70;2.72;;;24.40;52.40;23.80;97721.00;;;;5133986;27;20233;-79
2021/10/27 14:15:47;;;;;;;5.10;2.80;;;24.30;52.20;24.20;97721.00;;;;5149967;27;20665;-78
2021/10/27 14:18:52;;;;;;;6.13;3.20;;;24.30;52.40;24.20;97724.00;;;;5148450;27;20211;-80
2021/10/27 14:41:07;;;;;;;6.72;3.13;;;24.40;52.80;22.30;97724.00;;;;5110141;27;20209;-68
2021/10/27 14:47:36;;;;;;;5.50;3.03;;;23.80;53.80;19.30;97710.00;;;;5110892;27;20219;-68
2021/10/27 15:21:42;;;;;;;4.37;2.77;;;12.90;89.40;11.50;97742.00;;;;5136441;27;20221;-68
2021/10/27 15:25:03;;;;;;;3.50;3.20;;;12.50;92.20;10.80;97736.00;;;;5147056;27;20205;-68
2021/10/27 15:40:40;;;;;;;6.03;5.20;;;11.00;99.90;10.30;97740.00;;;;5132744;27;20228;-67
2021/10/27 15:43:40;;;;;;;7.63;5.47;;;10.80;99.90;10.40;97728.00;;;;5133160;27;20725;-67
2021/10/27 15:52:43;;;;;;;10.00;4.67;;;10.60;99.90;9.90;97736.00;;;;5144022;27;20225;-68
2021/10/27 15:55:32;;;;;;;6.37;4.67;;;10.50;99.90;9.90;97728.00;;;;5136353;27;20212;-67
2021/10/27 15:58:22;;;;;;;5.93;4.93;;;10.40;99.90;9.70;97742.00;;;;5149065;27;20208;-67
2021/10/27 16:01:11;;;;;;;9.80;4.70;;;10.30;99.90;9.60;97737.00;;;;5149370;27;20696;-66
2021/10/27 16:04:02;;;;;;;9.00;5.10;;;10.20;99.90;9.30;97740.00;;;;5149949;27;20258;-67
2021/10/27 16:06:52;;;;;;;4.23;3.83;;;10.00;99.90;9.40;97732.00;;;;5148820;27;20205;-66
2021/10/27 16:09:44;;;;;;;8.07;4.53;;;9.90;99.90;9.40;97741.00;;;;5149216;27;20205;-66
2021/10/27 16:12:45;;;;;;;5.53;4.53;;;9.80;99.90;9.30;97735.00;;;;5134915;27;20320;-66
2021/10/27 16:15:39;;;;;;;6.27;3.90;;;9.80;99.90;9.20;97740.00;;;;5149716;27;20208;-66
2021/10/27 16:18:33;;;;;;;5.70;4.10;;;9.70;99.90;9.10;97742.00;;;;5149858;27;20753;-66
2021/10/27 16:21:23;;;;;;;5.20;3.77;;;9.60;99.90;9.20;97739.00;;;;5148810;27;20322;-66
2021/10/27 16:24:13;;;;;;;4.97;3.73;;;9.60;99.90;9.30;97747.00;;;;5149297;27;20235;-67
2021/10/27 16:27:02;;;;;;;6.00;4.27;;;9.60;99.90;9.10;97740.00;;;;5149800;27;20218;-68
2021/10/27 16:29:51;;;;;;;5.70;3.77;;;9.60;99.90;9.10;97740.00;;;;5144728;27;20562;-67
2021/10/27 16:32:41;;;;;;;3.83;3.47;;;9.50;99.90;9.20;97744.00;;;;5145924;27;20224;-67
2021/10/27 16:35:30;;;;;;;4.17;3.73;;;9.50;99.90;8.70;97750.00;;;;5141943;27;20684;-65
2021/10/27 16:38:21;;;;;;;6.03;3.53;;;9.40;99.90;8.50;97739.00;;;;5140832;27;20553;-66
2021/10/27 16:41:10;;;;;;;4.67;3.87;;;9.20;99.90;8.40;97744.00;;;;5136817;27;20620;-66
2021/10/27 16:43:59;;;;;;;8.30;4.17;;;9.00;99.90;8.50;97750.00;;;;5134279;27;20217;-67